createdAt,value
2018-04-22T00:00:48.520Z,1012.34
2018-04-22T00:01:48.519Z,1012.33
2018-04-22T00:02:48.517Z,1012.33
2018-04-22T00:03:48.516Z,1012.31
2018-04-22T00:04:48.548Z,1012.27
2018-04-22T00:05:48.514Z,1012.27
2018-04-22T00:06:48.516Z,1012.22
2018-04-22T00:07:48.514Z,1012.23
2018-04-22T00:08:48.508Z,1012.20
2018-04-22T00:09:48.506Z,1012.25
2018-04-22T00:10:48.510Z,1012.20
2018-04-22T00:11:48.508Z,1012.23
2018-04-22T00:12:48.504Z,1012.21
2018-04-22T00:13:48.502Z,1012.23
2018-04-22T00:14:48.500Z,1012.23
2018-04-22T00:15:48.500Z,1012.18
2018-04-22T00:16:48.498Z,1012.16
2018-04-22T00:17:48.499Z,1012.16
2018-04-22T00:18:48.494Z,1012.07
2018-04-22T00:19:48.496Z,1012.07
2018-04-22T00:20:48.490Z,1012.04
2018-04-22T00:21:48.489Z,1012.07
2018-04-22T00:22:48.487Z,1012.03
2018-04-22T00:23:48.485Z,1012.05
2018-04-22T00:24:48.486Z,1012.01
2018-04-22T00:25:48.485Z,1011.99
2018-04-22T00:26:48.484Z,1012.01
2018-04-22T00:27:48.478Z,1011.97
2018-04-22T00:28:48.480Z,1011.95
2018-04-22T00:29:48.478Z,1011.93
2018-04-22T00:30:48.473Z,1011.92
2018-04-22T00:31:48.480Z,1011.93
2018-04-22T00:32:48.470Z,1011.89
2018-04-22T00:33:48.467Z,1011.87
2018-04-22T00:34:48.466Z,1011.83
2018-04-22T00:35:48.465Z,1011.81
2018-04-22T00:36:48.461Z,1011.81
2018-04-22T00:37:48.460Z,1011.73
2018-04-22T00:38:48.463Z,1011.70
2018-04-22T00:39:48.461Z,1011.74
2018-04-22T00:40:48.455Z,1011.70
2018-04-22T00:41:48.453Z,1011.72
2018-04-22T00:42:48.455Z,1011.69
2018-04-22T00:43:48.454Z,1011.72
2018-04-22T00:44:48.448Z,1011.65
2018-04-22T00:45:48.447Z,1011.70
2018-04-22T00:46:48.446Z,1011.67
2018-04-22T00:47:48.444Z,1011.67
2018-04-22T00:48:48.441Z,1011.69
2018-04-22T00:49:48.441Z,1011.67
2018-04-22T00:50:48.438Z,1011.62
2018-04-22T00:51:48.438Z,1011.67
2018-04-22T00:52:48.435Z,1011.63
2018-04-22T00:53:48.433Z,1011.65
2018-04-22T00:54:48.432Z,1011.62
2018-04-22T00:55:48.430Z,1011.62
2018-04-22T00:56:48.433Z,1011.59
2018-04-22T00:57:48.430Z,1011.57
2018-04-22T00:58:48.425Z,1011.57
2018-04-22T00:59:48.425Z,1011.52
2018-04-22T01:00:48.425Z,1011.55
2018-04-22T01:01:48.423Z,1011.49
2018-04-22T01:02:48.419Z,1011.45
2018-04-22T01:03:48.417Z,1011.45
2018-04-22T01:04:48.415Z,1011.47
2018-04-22T01:05:48.412Z,1011.42
2018-04-22T01:06:48.412Z,1011.44
2018-04-22T01:07:48.409Z,1011.42
2018-04-22T01:08:48.411Z,1011.43
2018-04-22T01:09:48.409Z,1011.42
2018-04-22T01:10:48.404Z,1011.43
2018-04-22T01:11:48.407Z,1011.40
2018-04-22T01:12:48.400Z,1011.42
2018-04-22T01:13:48.399Z,1011.44
2018-04-22T01:14:48.398Z,1011.46
2018-04-22T01:15:48.399Z,1011.44
2018-04-22T01:16:48.393Z,1011.47
2018-04-22T01:17:48.392Z,1011.44
2018-04-22T01:18:48.389Z,1011.37
2018-04-22T01:19:48.388Z,1011.43
2018-04-22T01:20:48.391Z,1011.34
2018-04-22T01:21:48.390Z,1011.34
2018-04-22T01:22:48.388Z,1011.34
2018-04-22T01:23:48.387Z,1011.36
2018-04-22T01:24:48.382Z,1011.34
2018-04-22T01:25:48.379Z,1011.31
2018-04-22T01:26:48.378Z,1011.32
2018-04-22T01:27:48.381Z,1011.32
2018-04-22T01:28:48.374Z,1011.33
2018-04-22T01:29:48.378Z,1011.28
2018-04-22T01:30:48.374Z,1011.24
2018-04-22T01:31:48.372Z,1011.26
2018-04-22T01:32:48.370Z,1011.25
2018-04-22T01:33:48.368Z,1011.23
2018-04-22T01:34:48.370Z,1011.25
2018-04-22T01:35:48.369Z,1011.22
2018-04-22T01:36:48.362Z,1011.20
2018-04-22T01:37:48.360Z,1011.17
2018-04-22T01:38:48.361Z,1011.13
2018-04-22T01:39:48.358Z,1011.11
2018-04-22T01:40:48.359Z,1011.11
2018-04-22T01:41:48.358Z,1011.14
2018-04-22T01:42:48.354Z,1011.12
2018-04-22T01:43:48.351Z,1011.11
2018-04-22T01:44:48.350Z,1011.15
2018-04-22T01:45:48.348Z,1011.16
2018-04-22T01:46:48.346Z,1011.13
2018-04-22T01:47:48.345Z,1011.13
2018-04-22T01:48:48.342Z,1011.16
2018-04-22T01:49:48.340Z,1011.17
2018-04-22T01:50:48.339Z,1011.12
2018-04-22T01:51:48.338Z,1011.11
2018-04-22T01:52:48.339Z,1011.13
2018-04-22T01:53:48.338Z,1011.10
2018-04-22T01:54:48.336Z,1011.05
2018-04-22T01:55:48.336Z,1011.07
2018-04-22T01:56:48.328Z,1011.06
2018-04-22T01:57:48.326Z,1011.08
2018-04-22T01:58:48.325Z,1011.04
2018-04-22T01:59:48.324Z,1011.04
2018-04-22T02:00:48.322Z,1011.08
2018-04-22T02:01:48.345Z,1011.05
2018-04-22T02:02:48.318Z,1011.04
2018-04-22T02:03:48.317Z,1011.01
2018-04-22T02:04:48.313Z,1011.04
2018-04-22T02:05:48.312Z,1010.97
2018-04-22T02:06:48.318Z,1010.98
2018-04-22T02:07:48.313Z,1011.00
2018-04-22T02:08:48.306Z,1011.00
2018-04-22T02:09:48.305Z,1011.00
2018-04-22T02:10:48.308Z,1010.98
2018-04-22T02:11:48.306Z,1011.00
2018-04-22T02:12:48.299Z,1011.00
2018-04-22T02:13:48.297Z,1010.99
2018-04-22T02:14:48.296Z,1010.97
2018-04-22T02:15:48.296Z,1010.97
2018-04-22T02:16:48.292Z,1010.94
2018-04-22T02:17:48.290Z,1010.93
2018-04-22T02:18:48.290Z,1010.91
2018-04-22T02:19:48.287Z,1010.94
2018-04-22T02:20:48.285Z,1010.86
2018-04-22T02:21:48.285Z,1010.91
2018-04-22T02:22:48.285Z,1010.85
2018-04-22T02:23:48.284Z,1010.88
2018-04-22T02:24:48.278Z,1010.78
2018-04-22T02:25:48.275Z,1010.82
2018-04-22T02:26:48.274Z,1010.83
2018-04-22T02:27:48.272Z,1010.83
2018-04-22T02:28:48.273Z,1010.79
2018-04-22T02:29:48.272Z,1010.77
2018-04-22T02:30:48.266Z,1010.82
2018-04-22T02:31:48.266Z,1010.79
2018-04-22T02:32:48.262Z,1010.77
2018-04-22T02:33:48.262Z,1010.81
2018-04-22T02:34:48.259Z,1010.76
2018-04-22T02:35:48.257Z,1010.75
2018-04-22T02:36:48.254Z,1010.72
2018-04-22T02:37:48.251Z,1010.74
2018-04-22T02:38:48.251Z,1010.70
2018-04-22T02:39:48.248Z,1010.67
2018-04-22T02:40:48.251Z,1010.64
2018-04-22T02:41:48.248Z,1010.70
2018-04-22T02:42:48.247Z,1010.64
2018-04-22T02:43:48.244Z,1010.66
2018-04-22T02:44:48.238Z,1010.62
2018-04-22T02:45:48.237Z,1010.61
2018-04-22T02:46:48.236Z,1010.59
2018-04-22T02:47:48.233Z,1010.55
2018-04-22T02:48:48.230Z,1010.58
2018-04-22T02:49:48.228Z,1010.59
2018-04-22T02:50:48.226Z,1010.54
2018-04-22T02:51:48.225Z,1010.55
2018-04-22T02:52:48.221Z,1010.48
2018-04-22T02:53:48.220Z,1010.49
2018-04-22T02:54:48.221Z,1010.45
2018-04-22T02:55:48.219Z,1010.49
2018-04-22T02:56:48.213Z,1010.48
2018-04-22T02:57:48.212Z,1010.44
2018-04-22T02:58:48.209Z,1010.50
2018-04-22T02:59:48.207Z,1010.43
2018-04-22T03:00:48.210Z,1010.43
2018-04-22T03:01:48.206Z,1010.40
2018-04-22T03:02:48.204Z,1010.38
2018-04-22T03:03:48.198Z,1010.41
2018-04-22T03:04:48.195Z,1010.42
2018-04-22T03:05:48.197Z,1010.36
2018-04-22T03:06:48.191Z,1010.39
2018-04-22T03:07:48.189Z,1010.39
2018-04-22T03:08:48.190Z,1010.34
2018-04-22T03:09:48.184Z,1010.28
2018-04-22T03:10:48.183Z,1010.30
2018-04-22T03:11:48.180Z,1010.31
2018-04-22T03:12:48.181Z,1010.26
2018-04-22T03:13:48.182Z,1010.28
2018-04-22T03:14:48.173Z,1010.28
2018-04-22T03:15:48.171Z,1010.29
2018-04-22T03:16:48.168Z,1010.23
2018-04-22T03:17:48.167Z,1010.23
2018-04-22T03:18:48.168Z,1010.21
2018-04-22T03:19:48.163Z,1010.23
2018-04-22T03:20:48.163Z,1010.20
2018-04-22T03:21:48.160Z,1010.17
2018-04-22T03:22:48.155Z,1010.20
2018-04-22T03:23:48.153Z,1010.13
2018-04-22T03:24:48.154Z,1010.13
2018-04-22T03:25:48.152Z,1010.13
2018-04-22T03:26:48.146Z,1010.11
2018-04-22T03:27:48.144Z,1010.08
2018-04-22T03:28:48.140Z,1010.01
2018-04-22T03:29:48.140Z,1010.06
2018-04-22T03:30:48.138Z,1010.07
2018-04-22T03:31:48.138Z,1010.01
2018-04-22T03:32:48.131Z,1010.08
2018-04-22T03:33:48.131Z,1010.10
2018-04-22T03:34:48.146Z,1010.02
2018-04-22T03:35:48.129Z,1010.03
2018-04-22T03:36:48.122Z,1009.94
2018-04-22T03:37:48.120Z,1009.93
2018-04-22T03:38:48.122Z,1009.91
2018-04-22T03:39:48.121Z,1009.91
2018-04-22T03:40:48.114Z,1009.94
2018-04-22T03:41:48.113Z,1009.87
2018-04-22T03:42:48.109Z,1009.86
2018-04-22T03:43:48.112Z,1009.87
2018-04-22T03:44:48.106Z,1009.79
2018-04-22T03:45:48.104Z,1009.82
2018-04-22T03:46:48.102Z,1009.76
2018-04-22T03:47:48.100Z,1009.72
2018-04-22T03:48:48.097Z,1009.70
2018-04-22T03:49:48.095Z,1009.70
2018-04-22T03:50:48.095Z,1009.72
2018-04-22T03:51:48.090Z,1009.68
2018-04-22T03:52:48.092Z,1009.64
2018-04-22T03:53:48.090Z,1009.65
2018-04-22T03:54:48.082Z,1009.62
2018-04-22T03:55:48.087Z,1009.68
2018-04-22T03:56:48.140Z,1009.61
2018-04-22T03:57:48.081Z,1009.63
2018-04-22T03:58:48.073Z,1009.61
2018-04-22T03:59:48.071Z,1009.63
2018-04-22T04:00:48.071Z,1009.59
2018-04-22T04:01:48.068Z,1009.58
2018-04-22T04:02:48.065Z,1009.60
2018-04-22T04:03:48.062Z,1009.61
2018-04-22T04:04:48.059Z,1009.56
2018-04-22T04:05:48.056Z,1009.59
2018-04-22T04:06:48.061Z,1009.54
2018-04-22T04:07:48.056Z,1009.58
2018-04-22T04:08:48.048Z,1009.58
2018-04-22T04:09:48.046Z,1009.55
2018-04-22T04:10:48.047Z,1009.56
2018-04-22T04:11:48.047Z,1009.53
2018-04-22T04:12:48.037Z,1009.55
2018-04-22T04:13:48.036Z,1009.55
2018-04-22T04:14:48.037Z,1009.50
2018-04-22T04:15:48.031Z,1009.49
2018-04-22T04:16:48.028Z,1009.49
2018-04-22T04:17:48.025Z,1009.47
2018-04-22T04:18:48.027Z,1009.47
2018-04-22T04:19:48.030Z,1009.50
2018-04-22T04:20:48.018Z,1009.44
2018-04-22T04:21:48.015Z,1009.37
2018-04-22T04:22:48.013Z,1009.34
2018-04-22T04:23:48.010Z,1009.34
2018-04-22T04:24:48.007Z,1009.29
2018-04-22T04:25:48.004Z,1009.26
2018-04-22T04:26:48.003Z,1009.31
2018-04-22T04:27:48.000Z,1009.24
2018-04-22T04:28:47.996Z,1009.20
2018-04-22T04:29:47.995Z,1009.23
2018-04-22T04:30:48.003Z,1009.24
2018-04-22T04:31:47.992Z,1009.18
2018-04-22T04:32:47.985Z,1009.21
2018-04-22T04:33:47.982Z,1009.23
2018-04-22T04:34:47.979Z,1009.19
2018-04-22T04:35:47.977Z,1009.20
2018-04-22T04:36:47.979Z,1009.20
2018-04-22T04:37:47.975Z,1009.21
2018-04-22T04:38:47.970Z,1009.21
2018-04-22T04:39:47.968Z,1009.25
2018-04-22T04:40:47.963Z,1009.23
2018-04-22T04:41:47.960Z,1009.22
2018-04-22T04:42:47.959Z,1009.18
2018-04-22T04:43:47.957Z,1009.19
2018-04-22T04:44:47.953Z,1009.22
2018-04-22T04:45:47.950Z,1009.30
2018-04-22T04:46:47.947Z,1009.24
2018-04-22T04:47:47.951Z,1009.31
2018-04-22T04:48:47.946Z,1009.37
2018-04-22T04:49:47.943Z,1009.31
2018-04-22T04:50:47.941Z,1009.36
2018-04-22T04:51:47.938Z,1009.34
2018-04-22T04:52:47.932Z,1009.35
2018-04-22T04:53:47.931Z,1009.36
2018-04-22T04:54:47.928Z,1009.38
2018-04-22T04:55:47.925Z,1009.37
2018-04-22T04:56:47.921Z,1009.39
2018-04-22T04:57:47.919Z,1009.35
2018-04-22T04:58:47.917Z,1009.39
2018-04-22T04:59:47.916Z,1009.44
2018-04-22T05:00:47.914Z,1009.47
2018-04-22T05:01:47.911Z,1009.44
2018-04-22T05:02:47.912Z,1009.41
2018-04-22T05:03:47.910Z,1009.37
2018-04-22T05:04:47.902Z,1009.36
2018-04-22T05:05:47.903Z,1009.39
2018-04-22T05:06:47.898Z,1009.37
2018-04-22T05:07:47.898Z,1009.27
2018-04-22T05:08:47.898Z,1009.31
2018-04-22T05:09:47.896Z,1009.30
2018-04-22T05:10:47.891Z,1009.29
2018-04-22T05:11:47.889Z,1009.32
2018-04-22T05:12:47.887Z,1009.29
2018-04-22T05:13:47.885Z,1009.29
2018-04-22T05:14:47.883Z,1009.33
2018-04-22T05:15:47.888Z,1009.30
2018-04-22T05:16:47.884Z,1009.26
2018-04-22T05:17:47.880Z,1009.27
2018-04-22T05:18:47.968Z,1009.25
2018-04-22T05:19:47.876Z,1009.29
2018-04-22T05:20:47.878Z,1009.24
2018-04-22T05:21:47.878Z,1009.27
2018-04-22T05:22:47.871Z,1009.24
2018-04-22T05:23:47.870Z,1009.26
2018-04-22T05:24:47.868Z,1009.34
2018-04-22T05:25:47.868Z,1009.30
2018-04-22T05:26:47.868Z,1009.30
2018-04-22T05:27:47.867Z,1009.39
2018-04-22T05:28:47.871Z,1009.39
2018-04-22T05:29:47.866Z,1009.41
2018-04-22T05:30:47.862Z,1009.29
2018-04-22T05:31:47.864Z,1009.45
2018-04-22T05:32:47.863Z,1009.48
2018-04-22T05:33:47.862Z,1009.45
2018-04-22T05:34:47.860Z,1009.51
2018-04-22T05:35:47.859Z,1009.48
2018-04-22T05:36:47.856Z,1009.55
2018-04-22T05:37:47.855Z,1009.52
2018-04-22T05:38:47.854Z,1009.54
2018-04-22T05:39:47.870Z,1009.51
2018-04-22T05:40:47.854Z,1009.60
2018-04-22T05:41:47.901Z,1009.54
2018-04-22T05:42:47.857Z,1009.47
2018-04-22T05:43:47.857Z,1009.57
2018-04-22T05:44:47.853Z,1009.62
2018-04-22T05:45:47.852Z,1009.44
2018-04-22T05:46:47.858Z,1009.42
2018-04-22T05:47:47.859Z,1009.46
2018-04-22T05:48:47.864Z,1009.55
2018-04-22T05:49:47.855Z,1009.58
2018-04-22T05:50:47.857Z,1009.56
2018-04-22T05:51:47.857Z,1009.57
2018-04-22T05:52:47.860Z,1009.53
2018-04-22T05:53:47.859Z,1009.65
2018-04-22T05:54:47.859Z,1009.66
2018-04-22T05:55:47.867Z,1009.68
2018-04-22T05:56:47.866Z,1009.70
2018-04-22T05:57:47.865Z,1009.64
2018-04-22T05:58:47.865Z,1009.68
2018-04-22T05:59:47.869Z,1009.73
2018-04-22T06:00:47.873Z,1009.77
2018-04-22T06:01:47.878Z,1009.85
2018-04-22T06:02:47.875Z,1009.89
2018-04-22T06:03:47.885Z,1009.82
2018-04-22T06:04:47.884Z,1009.86
2018-04-22T06:05:47.891Z,1009.94
2018-04-22T06:06:47.886Z,1009.98
2018-04-22T06:07:47.889Z,1009.90
2018-04-22T06:08:47.893Z,1009.90
2018-04-22T06:09:47.896Z,1009.90
2018-04-22T06:10:47.899Z,1009.96
2018-04-22T06:11:47.903Z,1010.02
2018-04-22T06:12:47.906Z,1009.99
2018-04-22T06:13:47.913Z,1009.97
2018-04-22T06:14:47.919Z,1009.86
2018-04-22T06:15:47.923Z,1009.92
2018-04-22T06:16:47.924Z,1010.06
2018-04-22T06:17:47.928Z,1010.02
2018-04-22T06:18:47.939Z,1009.98
2018-04-22T06:19:47.941Z,1009.99
2018-04-22T06:20:47.942Z,1010.03
2018-04-22T06:21:47.947Z,1010.02
2018-04-22T06:22:47.968Z,1010.09
2018-04-22T06:23:47.959Z,1010.07
2018-04-22T06:24:47.963Z,1010.11
2018-04-22T06:25:47.969Z,1010.11
2018-04-22T06:26:47.975Z,1010.16
2018-04-22T06:27:47.980Z,1010.14
2018-04-22T06:28:47.988Z,1010.08
2018-04-22T06:29:47.993Z,1010.08
2018-04-22T06:30:47.999Z,1010.12
2018-04-22T06:31:48.009Z,1010.21
2018-04-22T06:32:48.014Z,1010.15
2018-04-22T06:33:48.021Z,1010.11
2018-04-22T06:34:48.023Z,1010.18
2018-04-22T06:35:48.030Z,1010.10
2018-04-22T06:36:48.041Z,1010.07
2018-04-22T06:37:48.047Z,1010.14
2018-04-22T06:38:48.052Z,1010.22
2018-04-22T06:39:48.057Z,1010.18
2018-04-22T06:40:48.063Z,1010.21
2018-04-22T06:41:48.071Z,1010.21
2018-04-22T06:42:48.076Z,1010.22
2018-04-22T06:43:48.084Z,1010.20
2018-04-22T06:44:48.090Z,1010.23
2018-04-22T06:45:48.098Z,1010.18
2018-04-22T06:46:48.110Z,1010.24
2018-04-22T06:47:48.120Z,1010.25
2018-04-22T06:48:48.119Z,1010.21
2018-04-22T06:49:48.127Z,1010.22
2018-04-22T06:50:48.139Z,1010.25
2018-04-22T06:51:48.154Z,1010.22
2018-04-22T06:52:48.150Z,1010.19
2018-04-22T06:53:48.160Z,1010.19
2018-04-22T06:54:48.167Z,1010.22
2018-04-22T06:55:48.175Z,1010.19
2018-04-22T06:56:48.182Z,1010.02
2018-04-22T06:57:48.191Z,1009.86
2018-04-22T06:58:48.245Z,1009.90
2018-04-22T06:59:48.210Z,1009.95
2018-04-22T07:00:48.216Z,1010.00
2018-04-22T07:01:48.224Z,1009.95
2018-04-22T07:02:48.233Z,1009.96
2018-04-22T07:03:48.244Z,1010.12
2018-04-22T07:04:48.256Z,1010.07
2018-04-22T07:05:48.265Z,1010.07
2018-04-22T07:06:48.270Z,1010.06
2018-04-22T07:07:48.277Z,1010.10
2018-04-22T07:08:48.287Z,1009.99
2018-04-22T07:09:48.300Z,1010.12
2018-04-22T07:10:48.302Z,1010.14
2018-04-22T07:11:48.335Z,1010.14
2018-04-22T07:12:48.318Z,1010.22
2018-04-22T07:13:48.337Z,1010.28
2018-04-22T07:14:48.336Z,1010.27
2018-04-22T07:15:48.345Z,1010.37
2018-04-22T07:16:48.354Z,1010.36
2018-04-22T07:17:48.363Z,1010.44
2018-04-22T07:18:48.378Z,1010.41
2018-04-22T07:19:48.387Z,1010.37
2018-04-22T07:20:48.389Z,1010.39
2018-04-22T07:21:48.400Z,1010.35
2018-04-22T07:22:48.414Z,1010.39
2018-04-22T07:23:48.423Z,1009.66
2018-04-22T07:24:48.428Z,1009.63
2018-04-22T07:25:48.437Z,1009.68
2018-04-22T07:26:48.449Z,1009.71
2018-04-22T07:27:48.458Z,1009.65
2018-04-22T07:28:48.468Z,1009.71
2018-04-22T07:29:48.478Z,1009.76
2018-04-22T07:30:48.494Z,1009.77
2018-04-22T07:31:48.504Z,1009.78
2018-04-22T07:32:48.512Z,1009.79
2018-04-22T07:33:48.520Z,1009.82
2018-04-22T07:34:48.532Z,1009.84
2018-04-22T07:35:48.544Z,1009.85
2018-04-22T07:36:48.552Z,1009.88
2018-04-22T07:37:48.564Z,1009.85
2018-04-22T07:38:48.580Z,1009.84
2018-04-22T07:39:48.588Z,1009.88
2018-04-22T07:40:48.598Z,1009.88
2018-04-22T07:41:48.610Z,1009.87
2018-04-22T07:42:48.626Z,1009.85
2018-04-22T07:43:48.640Z,1009.81
2018-04-22T07:44:48.645Z,1009.89
2018-04-22T07:45:48.666Z,1009.80
2018-04-22T07:46:48.671Z,1009.84
2018-04-22T07:47:48.685Z,1009.83
2018-04-22T07:48:48.699Z,1009.85
2018-04-22T07:49:48.712Z,1009.85
2018-04-22T07:50:48.722Z,1009.84
2018-04-22T07:51:48.734Z,1009.83
2018-04-22T07:52:48.747Z,1009.86
2018-04-22T07:53:48.760Z,1009.79
2018-04-22T07:54:48.774Z,1009.73
2018-04-22T07:55:48.788Z,1009.71
2018-04-22T07:56:48.802Z,1009.66
2018-04-22T07:57:48.814Z,1009.68
2018-04-22T07:58:48.828Z,1009.66
2018-04-22T07:59:48.842Z,1009.63
2018-04-22T08:00:48.859Z,1009.71
2018-04-22T08:01:48.873Z,1009.73
2018-04-22T08:02:48.887Z,1009.70
2018-04-22T08:03:48.901Z,1009.71
2018-04-22T08:04:48.911Z,1009.73
2018-04-22T08:05:48.925Z,1009.77
2018-04-22T08:06:48.944Z,1009.76
2018-04-22T08:07:48.953Z,1009.77
2018-04-22T08:08:48.974Z,1009.77
2018-04-22T08:09:48.981Z,1009.80
2018-04-22T08:10:48.996Z,1009.76
2018-04-22T08:11:49.009Z,1009.76
2018-04-22T08:12:49.030Z,1009.85
2018-04-22T08:13:49.039Z,1009.81
2018-04-22T08:14:49.056Z,1009.77
2018-04-22T08:15:49.071Z,1009.76
2018-04-22T08:16:49.080Z,1009.80
2018-04-22T08:17:49.095Z,1009.85
2018-04-22T08:18:49.116Z,1009.79
2018-04-22T08:19:49.131Z,1009.79
2018-04-22T08:20:49.144Z,1009.79
2018-04-22T08:21:49.163Z,1009.75
2018-04-22T08:22:49.170Z,1009.77
2018-04-22T08:23:49.185Z,1009.73
2018-04-22T08:24:49.203Z,1009.75
2018-04-22T08:25:49.221Z,1009.71
2018-04-22T08:26:49.231Z,1009.74
2018-04-22T08:27:49.247Z,1009.77
2018-04-22T08:28:49.262Z,1009.76
2018-04-22T08:29:49.277Z,1009.77
2018-04-22T08:30:49.294Z,1009.83
2018-04-22T08:31:49.315Z,1009.76
2018-04-22T08:32:49.329Z,1009.76
2018-04-22T08:33:49.344Z,1009.84
2018-04-22T08:34:49.358Z,1009.84
2018-04-22T08:35:49.375Z,1009.82
2018-04-22T08:36:49.390Z,1009.83
2018-04-22T08:37:49.406Z,1009.84
2018-04-22T08:38:49.424Z,1009.86
2018-04-22T08:39:49.445Z,1009.87
2018-04-22T08:40:49.460Z,1009.90
2018-04-22T08:41:49.477Z,1009.91
2018-04-22T08:42:49.489Z,1009.92
2018-04-22T08:43:49.507Z,1009.90
2018-04-22T08:44:49.528Z,1009.87
2018-04-22T08:45:49.546Z,1009.92
2018-04-22T08:46:49.561Z,1009.93
2018-04-22T08:47:49.578Z,1009.99
2018-04-22T08:48:49.594Z,1010.00
2018-04-22T08:49:49.613Z,1009.94
2018-04-22T08:50:49.632Z,1009.94
2018-04-22T08:51:49.649Z,1009.93
2018-04-22T08:52:49.666Z,1010.04
2018-04-22T08:53:49.683Z,1010.08
2018-04-22T08:54:49.704Z,1010.11
2018-04-22T08:55:49.728Z,1010.13
2018-04-22T08:56:49.738Z,1010.14
2018-04-22T08:57:49.754Z,1010.11
2018-04-22T08:58:49.778Z,1010.09
2018-04-22T08:59:49.794Z,1010.22
2018-04-22T09:00:49.817Z,1010.19
2018-04-22T09:01:49.826Z,1010.18
2018-04-22T09:02:49.846Z,1010.09
2018-04-22T09:03:49.863Z,1010.10
2018-04-22T09:04:49.880Z,1010.08
2018-04-22T09:05:49.899Z,1010.07
2018-04-22T09:06:49.924Z,1010.02
2018-04-22T09:07:49.936Z,1009.94
2018-04-22T09:08:49.954Z,1009.89
2018-04-22T09:09:49.974Z,1009.86
2018-04-22T09:10:50.062Z,1009.81
2018-04-22T09:11:50.010Z,1009.78
2018-04-22T09:12:50.032Z,1009.80
2018-04-22T09:13:50.051Z,1009.92
2018-04-22T09:14:50.066Z,1009.84
2018-04-22T09:15:50.085Z,1009.83
2018-04-22T09:16:50.108Z,1009.87
2018-04-22T09:17:50.127Z,1009.92
2018-04-22T09:18:50.143Z,1009.88
2018-04-22T09:19:50.163Z,1009.88
2018-04-22T09:20:50.181Z,1009.84
2018-04-22T09:21:50.198Z,1009.85
2018-04-22T09:22:50.217Z,1009.80
2018-04-22T09:23:50.238Z,1009.82
2018-04-22T09:24:50.255Z,1010.06
2018-04-22T09:25:50.275Z,1010.05
2018-04-22T09:26:50.298Z,1010.13
2018-04-22T09:27:50.318Z,1010.07
2018-04-22T09:28:50.332Z,1009.94
2018-04-22T09:29:50.352Z,1010.06
2018-04-22T09:30:50.376Z,1010.09
2018-04-22T09:31:50.398Z,1010.15
2018-04-22T09:32:50.411Z,1010.20
2018-04-22T09:33:50.431Z,1010.16
2018-04-22T09:34:50.451Z,1010.15
2018-04-22T09:35:50.471Z,1010.05
2018-04-22T09:36:50.492Z,1009.88
2018-04-22T09:37:50.512Z,1009.80
2018-04-22T09:38:50.535Z,1009.88
2018-04-22T09:39:50.557Z,1009.86
2018-04-22T09:40:50.573Z,1009.90
2018-04-22T09:41:50.594Z,1009.94
2018-04-22T09:42:50.614Z,1009.96
2018-04-22T09:43:50.634Z,1009.93
2018-04-22T09:44:50.653Z,1009.97
2018-04-22T09:45:50.732Z,1009.88
2018-04-22T09:46:50.696Z,1009.89
2018-04-22T09:47:50.718Z,1009.86
2018-04-22T09:48:50.737Z,1009.86
2018-04-22T09:49:50.797Z,1009.87
2018-04-22T09:50:50.784Z,1009.85
2018-04-22T09:51:50.806Z,1009.86
2018-04-22T09:52:50.823Z,1009.74
2018-04-22T09:53:50.846Z,1009.69
2018-04-22T09:54:50.868Z,1009.76
2018-04-22T09:55:50.889Z,1009.80
2018-04-22T09:56:50.914Z,1009.80
2018-04-22T09:57:50.935Z,1009.71
2018-04-22T09:58:50.952Z,1009.76
2018-04-22T09:59:50.974Z,1009.66
2018-04-22T10:00:50.994Z,1009.61
2018-04-22T10:01:51.016Z,1009.64
2018-04-22T10:02:51.037Z,1009.62
2018-04-22T10:03:51.059Z,1009.65
2018-04-22T10:04:51.115Z,1009.59
2018-04-22T10:05:51.097Z,1009.58
2018-04-22T10:06:51.117Z,1009.56
2018-04-22T10:07:51.139Z,1009.64
2018-04-22T10:08:51.159Z,1009.56
2018-04-22T10:09:51.178Z,1009.56
2018-04-22T10:10:51.242Z,1009.47
2018-04-22T10:11:51.217Z,1009.53
2018-04-22T10:12:51.235Z,1009.52
2018-04-22T10:13:51.252Z,1009.54
2018-04-22T10:14:51.270Z,1009.46
2018-04-22T10:15:51.294Z,1009.45
2018-04-22T10:16:51.307Z,1009.43
2018-04-22T10:17:51.327Z,1009.39
2018-04-22T10:18:51.344Z,1009.32
2018-04-22T10:19:51.371Z,1009.34
2018-04-22T10:20:51.381Z,1009.30
2018-04-22T10:21:51.441Z,1009.15
2018-04-22T10:22:51.442Z,1009.12
2018-04-22T10:23:51.442Z,1009.13
2018-04-22T10:24:51.461Z,1009.11
2018-04-22T10:25:51.474Z,1009.06
2018-04-22T10:26:51.493Z,1009.05
2018-04-22T10:27:51.512Z,1009.00
2018-04-22T10:28:51.533Z,1009.04
2018-04-22T10:29:51.552Z,1009.07
2018-04-22T10:30:51.567Z,1009.11
2018-04-22T10:31:51.584Z,1009.03
2018-04-22T10:32:51.603Z,1009.04
2018-04-22T10:33:51.618Z,1009.02
2018-04-22T10:34:51.636Z,1008.99
2018-04-22T10:35:51.655Z,1008.92
2018-04-22T10:36:51.670Z,1008.92
2018-04-22T10:37:51.688Z,1008.87
2018-04-22T10:38:51.706Z,1008.70
2018-04-22T10:39:51.724Z,1008.72
2018-04-22T10:40:51.743Z,1008.80
2018-04-22T10:41:51.760Z,1008.79
2018-04-22T10:42:51.773Z,1008.82
2018-04-22T10:43:51.793Z,1008.88
2018-04-22T10:44:51.807Z,1008.79
2018-04-22T10:45:51.825Z,1008.84
2018-04-22T10:46:51.845Z,1008.83
2018-04-22T10:47:51.862Z,1008.78
2018-04-22T10:48:51.876Z,1008.79
2018-04-22T10:49:51.891Z,1008.81
2018-04-22T10:50:51.913Z,1008.83
2018-04-22T10:51:51.930Z,1008.82
2018-04-22T10:52:51.943Z,1008.78
2018-04-22T10:53:51.960Z,1008.76
2018-04-22T10:54:51.977Z,1008.72
2018-04-22T10:55:51.994Z,1008.68
2018-04-22T10:56:52.011Z,1008.58
2018-04-22T10:57:52.063Z,1008.43
2018-04-22T10:58:52.045Z,1008.56
2018-04-22T10:59:52.072Z,1008.59
2018-04-22T11:00:52.093Z,1008.60
2018-04-22T11:01:52.099Z,1008.55
2018-04-22T11:02:52.115Z,1008.44
2018-04-22T11:03:52.133Z,1008.35
2018-04-22T11:04:52.154Z,1008.32
2018-04-22T11:05:52.172Z,1008.28
2018-04-22T11:06:52.184Z,1008.19
2018-04-22T11:07:52.202Z,1008.11
2018-04-22T11:08:52.221Z,1008.09
2018-04-22T11:09:52.239Z,1008.04
2018-04-22T11:10:52.253Z,1007.98
2018-04-22T11:11:52.268Z,1008.00
2018-04-22T11:12:52.285Z,1007.93
2018-04-22T11:13:52.303Z,1007.87
2018-04-22T11:14:52.321Z,1007.83
2018-04-22T11:15:52.332Z,1007.81
2018-04-22T11:16:52.347Z,1007.83
2018-04-22T11:17:52.362Z,1007.84
2018-04-22T11:18:52.384Z,1007.85
2018-04-22T11:19:52.395Z,1007.83
2018-04-22T11:20:52.417Z,1007.89
2018-04-22T11:21:52.420Z,1007.92
2018-04-22T11:22:52.438Z,1007.85
2018-04-22T11:23:52.461Z,1007.90
2018-04-22T11:24:52.460Z,1007.90
2018-04-22T11:25:52.481Z,1007.88
2018-04-22T11:26:52.487Z,1007.80
2018-04-22T11:27:52.502Z,1007.81
2018-04-22T11:28:52.516Z,1007.80
2018-04-22T11:29:52.526Z,1007.75
2018-04-22T11:30:52.537Z,1007.74
2018-04-22T11:31:52.550Z,1007.78
2018-04-22T11:32:52.562Z,1007.78
2018-04-22T11:33:52.575Z,1007.76
2018-04-22T11:34:52.588Z,1007.68
2018-04-22T11:35:52.599Z,1007.61
2018-04-22T11:36:52.616Z,1007.57
2018-04-22T11:37:52.627Z,1007.52
2018-04-22T11:38:52.635Z,1007.58
2018-04-22T11:39:52.649Z,1007.57
2018-04-22T11:40:52.662Z,1007.52
2018-04-22T11:41:52.674Z,1007.49
2018-04-22T11:42:52.683Z,1007.40
2018-04-22T11:43:52.693Z,1007.35
2018-04-22T11:44:52.704Z,1007.27
2018-04-22T11:45:52.715Z,1007.26
2018-04-22T11:46:52.731Z,1007.26
2018-04-22T11:47:52.742Z,1007.25
2018-04-22T11:48:52.750Z,1007.19
2018-04-22T11:49:52.763Z,1007.16
2018-04-22T11:50:52.768Z,1007.19
2018-04-22T11:51:52.779Z,1007.16
2018-04-22T11:52:52.787Z,1007.14
2018-04-22T11:53:52.803Z,1007.10
2018-04-22T11:54:52.808Z,1007.07
2018-04-22T11:55:52.818Z,1007.06
2018-04-22T11:56:52.825Z,1007.08
2018-04-22T11:57:52.835Z,1007.06
2018-04-22T11:58:52.846Z,1007.06
2018-04-22T11:59:52.877Z,1007.12
2018-04-22T12:00:52.866Z,1007.08
2018-04-22T12:01:52.876Z,1007.06
2018-04-22T12:02:52.885Z,1007.05
2018-04-22T12:03:52.895Z,1007.03
2018-04-22T12:04:52.900Z,1006.99
2018-04-22T12:05:52.908Z,1007.07